createdAt,value
2018-09-13T00:00:52.082Z,100260.00
2018-09-13T00:03:21.395Z,100251.00
2018-09-13T00:05:50.664Z,100255.00
2018-09-13T00:08:19.869Z,100248.00
2018-09-13T00:10:48.809Z,100255.00
2018-09-13T00:13:19.011Z,100257.00
2018-09-13T00:15:47.997Z,100252.00
2018-09-13T00:18:17.322Z,100254.00
2018-09-13T00:20:47.037Z,100246.00
2018-09-13T00:23:16.347Z,100245.00
2018-09-13T00:25:45.340Z,100250.00
2018-09-13T00:28:14.531Z,100249.00
2018-09-13T00:30:43.741Z,100248.00
2018-09-13T00:33:12.841Z,100252.00
2018-09-13T00:35:42.029Z,100253.00
2018-09-13T00:38:11.269Z,100247.00
2018-09-13T00:40:40.432Z,100245.00
2018-09-13T00:43:09.633Z,100244.00
2018-09-13T00:45:38.607Z,100243.00
2018-09-13T00:48:08.025Z,100239.00
2018-09-13T00:50:37.204Z,100242.00
2018-09-13T00:53:06.387Z,100240.00
2018-09-13T00:55:35.547Z,100239.00
2018-09-13T00:58:04.486Z,100234.00
2018-09-13T01:00:33.683Z,100229.00
2018-09-13T01:03:02.657Z,100233.00
2018-09-13T01:05:31.806Z,100232.00
2018-09-13T01:08:00.776Z,100229.00
2018-09-13T01:10:30.043Z,100235.00
2018-09-13T01:12:59.057Z,100226.00
2018-09-13T01:15:28.379Z,100221.00
2018-09-13T01:17:57.578Z,100224.00
2018-09-13T01:20:26.754Z,100225.00
2018-09-13T01:22:55.924Z,100211.00
2018-09-13T01:25:25.239Z,100208.00
2018-09-13T01:27:54.412Z,100212.00
2018-09-13T01:30:23.326Z,100211.00
2018-09-13T01:32:52.530Z,100199.00
2018-09-13T01:35:21.518Z,100199.00
2018-09-13T01:37:50.697Z,100201.00
2018-09-13T01:40:19.969Z,100198.00
2018-09-13T01:42:48.912Z,100192.00
2018-09-13T01:45:17.876Z,100191.00
2018-09-13T01:47:46.843Z,100208.00
2018-09-13T01:50:15.867Z,100206.00
2018-09-13T01:52:45.056Z,100200.00
2018-09-13T01:55:14.051Z,100201.00
2018-09-13T01:57:43.294Z,100189.00
2018-09-13T02:00:12.326Z,100188.00
2018-09-13T02:02:41.519Z,100186.00
2018-09-13T02:05:10.464Z,100196.00
2018-09-13T02:07:39.651Z,100184.00
2018-09-13T02:10:08.575Z,100198.00
2018-09-13T02:12:37.559Z,100203.00
2018-09-13T02:15:06.785Z,100211.00
2018-09-13T02:17:35.773Z,100210.00
2018-09-13T02:20:04.774Z,100222.00
2018-09-13T02:22:33.991Z,100217.00
2018-09-13T02:25:03.467Z,100214.00
2018-09-13T02:27:32.512Z,100207.00
2018-09-13T02:30:01.814Z,100206.00
2018-09-13T02:32:31.181Z,100203.00
2018-09-13T02:35:00.383Z,100201.00
2018-09-13T02:37:30.119Z,100188.00
2018-09-13T02:39:59.135Z,100194.00
2018-09-13T02:42:28.288Z,100195.00
2018-09-13T02:44:57.227Z,100196.00
2018-09-13T02:47:26.447Z,100195.00
2018-09-13T02:49:55.408Z,100196.00
2018-09-13T02:52:24.762Z,100190.00
2018-09-13T02:54:53.924Z,100185.00
2018-09-13T02:57:29.834Z,100190.00
2018-09-13T02:59:58.983Z,100188.00
2018-09-13T03:02:28.186Z,100180.00
2018-09-13T03:04:57.385Z,100180.00
2018-09-13T03:07:26.604Z,100191.00
2018-09-13T03:09:55.843Z,100178.00
2018-09-13T03:12:24.814Z,100188.00
2018-09-13T03:14:54.038Z,100184.00
2018-09-13T03:17:23.303Z,100184.00
2018-09-13T03:19:52.515Z,100182.00
2018-09-13T03:22:21.791Z,100178.00
2018-09-13T03:24:50.988Z,100176.00
2018-09-13T03:27:20.227Z,100177.00
2018-09-13T03:29:49.481Z,100175.00
2018-09-13T03:32:18.684Z,100167.00
2018-09-13T03:34:48.192Z,100156.00
2018-09-13T03:37:17.161Z,100157.00
2018-09-13T03:39:46.428Z,100154.00
2018-09-13T03:42:15.646Z,100146.00
2018-09-13T03:44:45.028Z,100157.00
2018-09-13T03:47:14.289Z,100158.00
2018-09-13T03:49:43.272Z,100161.00
2018-09-13T03:52:12.537Z,100161.00
2018-09-13T03:54:41.595Z,100159.00
2018-09-13T03:57:10.816Z,100158.00
2018-09-13T03:59:40.016Z,100149.00
2018-09-13T04:02:09.006Z,100142.00
2018-09-13T04:04:38.263Z,100132.00
2018-09-13T04:07:07.464Z,100138.00
2018-09-13T04:09:36.691Z,100139.00
2018-09-13T04:12:05.765Z,100139.00
2018-09-13T04:14:34.869Z,100141.00
2018-09-13T04:17:04.055Z,100152.00
2018-09-13T04:19:47.902Z,100145.00
2018-09-13T04:22:17.789Z,100138.00
2018-09-13T04:24:46.957Z,100141.00
2018-09-13T04:27:16.227Z,100140.00
2018-09-13T04:29:45.575Z,100143.00
2018-09-13T04:32:14.752Z,100145.00
2018-09-13T04:34:43.782Z,100143.00
2018-09-13T04:37:13.050Z,100147.00
2018-09-13T04:39:42.309Z,100147.00
2018-09-13T04:42:11.248Z,100150.00
2018-09-13T04:44:40.504Z,100154.00
2018-09-13T04:47:09.473Z,100146.00
2018-09-13T04:49:38.721Z,100139.00
2018-09-13T04:52:07.975Z,100148.00
2018-09-13T04:54:37.102Z,100154.00
2018-09-13T04:57:06.376Z,100163.00
2018-09-13T04:59:35.678Z,100157.00
2018-09-13T05:02:05.024Z,100160.00
2018-09-13T05:04:34.066Z,100156.00
2018-09-13T05:07:03.095Z,100149.00
2018-09-13T05:09:32.472Z,100151.00
2018-09-13T05:12:01.683Z,100154.00
2018-09-13T05:14:30.917Z,100166.00
2018-09-13T05:17:00.224Z,100167.00
2018-09-13T05:19:29.204Z,100164.00
2018-09-13T05:21:58.744Z,100157.00
2018-09-13T05:24:28.086Z,100159.00
2018-09-13T05:26:57.307Z,100161.00
2018-09-13T05:29:26.566Z,100157.00
2018-09-13T05:31:55.820Z,100172.00
2018-09-13T05:34:25.073Z,100169.00
2018-09-13T05:36:54.251Z,100158.00
2018-09-13T05:39:23.436Z,100167.00
2018-09-13T05:41:52.612Z,100173.00
2018-09-13T05:44:21.550Z,100169.00
2018-09-13T05:46:50.516Z,100165.00
2018-09-13T05:49:19.737Z,100171.00
2018-09-13T05:51:48.936Z,100176.00
2018-09-13T05:54:18.141Z,100171.00
2018-09-13T05:56:47.363Z,100165.00
2018-09-13T05:59:16.568Z,100158.00
2018-09-13T06:01:45.900Z,100159.00
2018-09-13T06:04:15.141Z,100155.00
2018-09-13T06:06:44.108Z,100159.00
2018-09-13T06:09:13.417Z,100155.00
2018-09-13T06:11:42.382Z,100154.00
2018-09-13T06:14:11.365Z,100147.00
2018-09-13T06:16:40.327Z,100147.00
2018-09-13T06:19:09.516Z,100144.00
2018-09-13T06:21:38.700Z,100146.00
2018-09-13T06:24:07.747Z,100158.00
2018-09-13T06:26:36.990Z,100157.00
2018-09-13T06:29:06.471Z,100156.00
2018-09-13T06:31:35.622Z,100151.00
2018-09-13T06:34:04.672Z,100150.00
2018-09-13T06:36:33.872Z,100168.00
2018-09-13T06:39:02.992Z,100159.00
2018-09-13T06:41:32.189Z,100159.00
2018-09-13T06:44:01.149Z,100157.00
2018-09-13T06:46:30.347Z,100164.00
2018-09-13T06:48:59.523Z,100152.00
2018-09-13T06:51:28.766Z,100155.00
2018-09-13T06:53:58.242Z,100159.00
2018-09-13T06:56:27.342Z,100153.00
2018-09-13T06:58:56.489Z,100158.00
2018-09-13T07:01:25.663Z,100157.00
2018-09-13T07:03:54.636Z,100149.00
2018-09-13T07:06:23.827Z,100158.00
2018-09-13T07:08:52.776Z,100151.00
2018-09-13T07:11:21.711Z,100147.00
2018-09-13T07:13:50.951Z,100153.00
2018-09-13T07:16:26.612Z,100147.00
2018-09-13T07:18:55.893Z,100156.00
2018-09-13T07:21:24.856Z,100158.00
2018-09-13T07:23:54.040Z,100163.00
2018-09-13T07:26:23.116Z,100167.00
2018-09-13T07:28:52.124Z,100157.00
2018-09-13T07:31:21.360Z,100156.00
2018-09-13T07:33:50.403Z,100157.00
2018-09-13T07:36:19.555Z,100150.00
2018-09-13T07:38:48.593Z,100157.00
2018-09-13T07:41:17.785Z,100144.00
2018-09-13T07:43:46.961Z,100143.00
2018-09-13T07:46:16.132Z,100142.00
2018-09-13T07:48:45.084Z,100131.00
2018-09-13T07:51:13.999Z,100139.00
2018-09-13T07:53:43.172Z,100133.00
2018-09-13T07:56:12.131Z,100131.00
2018-09-13T07:58:41.341Z,100127.00
2018-09-13T08:01:10.466Z,100133.00
2018-09-13T08:03:39.659Z,100130.00
2018-09-13T08:06:09.127Z,100135.00
2018-09-13T08:08:38.364Z,100142.00
2018-09-13T08:11:07.593Z,100133.00
2018-09-13T08:13:36.681Z,100137.00
2018-09-13T08:16:05.843Z,100128.00
2018-09-13T08:18:34.950Z,100145.00
2018-09-13T08:21:04.495Z,100150.00
2018-09-13T08:23:33.668Z,100149.00
2018-09-13T08:26:02.810Z,100157.00
2018-09-13T08:28:31.954Z,100153.00
2018-09-13T08:31:01.175Z,100146.00
2018-09-13T08:33:30.271Z,100149.00
2018-09-13T08:35:59.470Z,100152.00
2018-09-13T08:38:28.618Z,100158.00
2018-09-13T08:40:57.797Z,100151.00
2018-09-13T08:43:26.999Z,100147.00
2018-09-13T08:45:55.956Z,100146.00
2018-09-13T08:48:25.123Z,100147.00
2018-09-13T08:50:54.218Z,100142.00
2018-09-13T08:53:23.363Z,100150.00
2018-09-13T08:55:52.315Z,100154.00
2018-09-13T08:58:21.460Z,100163.00
2018-09-13T09:00:50.632Z,100172.00
2018-09-13T09:03:19.819Z,100178.00
2018-09-13T09:05:48.858Z,100166.00
2018-09-13T09:08:18.074Z,100176.00
2018-09-13T09:10:47.097Z,100171.00
2018-09-13T09:13:16.234Z,100164.00
2018-09-13T09:15:45.192Z,100164.00
2018-09-13T09:18:14.371Z,100162.00
2018-09-13T09:20:43.537Z,100155.00
2018-09-13T09:23:15.655Z,100156.00
2018-09-13T09:25:44.847Z,100158.00
2018-09-13T09:28:13.790Z,100158.00
2018-09-13T09:30:42.937Z,100170.00
2018-09-13T09:33:12.087Z,100169.00
2018-09-13T09:35:40.988Z,100156.00
2018-09-13T09:38:10.187Z,100148.00
2018-09-13T09:40:39.237Z,100155.00
2018-09-13T09:43:08.370Z,100162.00
2018-09-13T09:45:37.310Z,100169.00
2018-09-13T09:48:06.590Z,100163.00
2018-09-13T09:50:35.514Z,100155.00
2018-09-13T09:53:04.418Z,100151.00
2018-09-13T09:55:33.512Z,100154.00
2018-09-13T09:58:02.756Z,100156.00
2018-09-13T10:00:37.248Z,100158.00
2018-09-13T10:03:06.481Z,100157.00
2018-09-13T10:05:35.706Z,100152.00
2018-09-13T10:08:04.619Z,100167.00
2018-09-13T10:10:33.817Z,100151.00
2018-09-13T10:13:02.743Z,100161.00
2018-09-13T10:15:37.263Z,100154.00
2018-09-13T10:18:11.779Z,100151.00
2018-09-13T10:20:46.262Z,100144.00
2018-09-13T10:23:20.760Z,100124.00
2018-09-13T10:25:55.280Z,100125.00
2018-09-13T10:28:29.879Z,100133.00
2018-09-13T10:31:04.375Z,100132.00
2018-09-13T10:33:38.905Z,100134.00
2018-09-13T10:36:13.553Z,100130.00
2018-09-13T10:38:48.249Z,100141.00
2018-09-13T10:41:22.802Z,100142.00
2018-09-13T10:43:57.343Z,100130.00
2018-09-13T10:46:27.867Z,100140.00
2018-09-13T10:49:02.254Z,100129.00
2018-09-13T10:51:36.609Z,100128.00
2018-09-13T10:54:10.951Z,100130.00
2018-09-13T10:56:41.075Z,100145.00
2018-09-13T10:59:10.387Z,100142.00
2018-09-13T11:01:39.634Z,100146.00
2018-09-13T11:04:08.573Z,100147.00
2018-09-13T11:06:37.702Z,100149.00
2018-09-13T11:09:07.481Z,100150.00
2018-09-13T11:11:36.712Z,100143.00
2018-09-13T11:14:11.897Z,100149.00
2018-09-13T11:16:41.135Z,100146.00
2018-09-13T11:19:10.496Z,100157.00
2018-09-13T11:21:39.666Z,100144.00
2018-09-13T11:24:08.835Z,100145.00
2018-09-13T11:26:38.117Z,100134.00
2018-09-13T11:29:07.266Z,100130.00
2018-09-13T11:31:36.463Z,100134.00
2018-09-13T11:34:05.634Z,100134.00
2018-09-13T11:36:34.568Z,100132.00
2018-09-13T11:39:03.849Z,100139.00
2018-09-13T11:41:33.109Z,100133.00
2018-09-13T11:44:02.306Z,100130.00
2018-09-13T11:46:31.226Z,100133.00
2018-09-13T11:49:00.462Z,100129.00
2018-09-13T11:51:29.897Z,100124.00
2018-09-13T11:53:58.878Z,100119.00
2018-09-13T11:56:28.080Z,100111.00
2018-09-13T11:58:57.274Z,100132.00
2018-09-13T12:01:26.431Z,100132.00
2018-09-13T12:03:55.355Z,100147.00
2018-09-13T12:06:25.004Z,100150.00
2018-09-13T12:08:54.253Z,100134.00
2018-09-13T12:11:23.258Z,100145.00
2018-09-13T12:13:52.468Z,100135.00
2018-09-13T12:16:21.448Z,100124.00
2018-09-13T12:18:50.644Z,100126.00
2018-09-13T12:21:19.803Z,100124.00
2018-09-13T12:23:48.982Z,100120.00
2018-09-13T12:26:18.217Z,100121.00
2018-09-13T12:28:47.171Z,100111.00
2018-09-13T12:31:16.359Z,100099.00
2018-09-13T12:33:45.587Z,100090.00
2018-09-13T12:36:14.594Z,100096.00
2018-09-13T12:38:43.545Z,100106.00
2018-09-13T12:41:12.491Z,100107.00
2018-09-13T12:43:41.600Z,100111.00
2018-09-13T12:46:10.786Z,100120.00
2018-09-13T12:48:40.009Z,100126.00
2018-09-13T12:51:09.119Z,100127.00
2018-09-13T12:53:38.263Z,100127.00
2018-09-13T12:56:07.235Z,100133.00
2018-09-13T12:58:36.433Z,100132.00
2018-09-13T13:01:05.657Z,100136.00
2018-09-13T13:03:34.858Z,100134.00
2018-09-13T13:06:03.998Z,100125.00
2018-09-13T13:08:32.882Z,100102.00
2018-09-13T13:11:01.997Z,100094.00
2018-09-13T13:13:30.899Z,100100.00
2018-09-13T13:16:00.063Z,100104.00
2018-09-13T13:18:29.173Z,100104.00
2018-09-13T13:20:58.392Z,100099.00
2018-09-13T13:23:27.635Z,100095.00
2018-09-13T13:25:56.547Z,100097.00
2018-09-13T13:28:25.714Z,100097.00
2018-09-13T13:30:54.868Z,100116.00
2018-09-13T13:33:23.979Z,100116.00
2018-09-13T13:35:53.147Z,100119.00
2018-09-13T13:38:22.419Z,100111.00
2018-09-13T13:40:51.584Z,100103.00
2018-09-13T13:43:20.539Z,100101.00
2018-09-13T13:45:49.675Z,100120.00
2018-09-13T13:48:18.872Z,100126.00
2018-09-13T13:50:48.016Z,100137.00
2018-09-13T13:53:16.913Z,100135.00
2018-09-13T13:55:46.003Z,100131.00
2018-09-13T13:58:14.930Z,100129.00
2018-09-13T14:00:44.147Z,100124.00
2018-09-13T14:03:13.245Z,100120.00
2018-09-13T14:05:42.367Z,100106.00
2018-09-13T14:08:11.315Z,100098.00
2018-09-13T14:10:40.458Z,100096.00
2018-09-13T14:13:09.371Z,100098.00
2018-09-13T14:15:38.551Z,100091.00
2018-09-13T14:18:07.678Z,100093.00
2018-09-13T14:20:36.635Z,100100.00
2018-09-13T14:23:05.547Z,100092.00
2018-09-13T14:25:34.690Z,100095.00
2018-09-13T14:28:03.870Z,100095.00
2018-09-13T14:30:33.050Z,100096.00
2018-09-13T14:33:02.179Z,100102.00
2018-09-13T14:35:31.395Z,100099.00
2018-09-13T14:38:00.573Z,100096.00
2018-09-13T14:40:29.546Z,100103.00
2018-09-13T14:42:58.682Z,100109.00
2018-09-13T14:45:27.643Z,100098.00
2018-09-13T14:47:57.099Z,100095.00
2018-09-13T14:50:26.011Z,100088.00
2018-09-13T14:52:54.984Z,100082.00
2018-09-13T14:55:24.114Z,100070.00
2018-09-13T14:57:53.274Z,100070.00
2018-09-13T15:00:22.399Z,100062.00
2018-09-13T15:02:51.306Z,100078.00
2018-09-13T15:05:20.439Z,100066.00
2018-09-13T15:07:49.375Z,100063.00
2018-09-13T15:10:18.732Z,100064.00
2018-09-13T15:12:47.697Z,100073.00
2018-09-13T15:15:16.817Z,100063.00
2018-09-13T15:17:45.771Z,100065.00
2018-09-13T15:20:14.911Z,100060.00
2018-09-13T15:22:44.086Z,100059.00
2018-09-13T15:25:13.292Z,100053.00
2018-09-13T15:27:42.218Z,100045.00
2018-09-13T15:30:11.382Z,100036.00
2018-09-13T15:32:40.537Z,100048.00
2018-09-13T15:35:09.745Z,100046.00
2018-09-13T15:37:38.718Z,100054.00
2018-09-13T15:40:07.904Z,100061.00
2018-09-13T15:42:36.811Z,100069.00
2018-09-13T15:45:06.016Z,100064.00
2018-09-13T15:47:35.162Z,100066.00
2018-09-13T15:50:04.335Z,100082.00
2018-09-13T15:52:33.494Z,100081.00
2018-09-13T15:55:02.455Z,100078.00
2018-09-13T15:57:31.665Z,100077.00
2018-09-13T16:00:00.631Z,100083.00
2018-09-13T16:02:29.808Z,100078.00
2018-09-13T16:04:58.726Z,100077.00
2018-09-13T16:07:27.655Z,100075.00
2018-09-13T16:09:56.794Z,100069.00
2018-09-13T16:12:25.944Z,100067.00
2018-09-13T16:14:55.058Z,100059.00
2018-09-13T16:17:23.954Z,100063.00
2018-09-13T16:19:53.154Z,100065.00
2018-09-13T16:22:22.308Z,100054.00
2018-09-13T16:24:51.418Z,100058.00
2018-09-13T16:27:20.544Z,100051.00
2018-09-13T16:29:49.672Z,100051.00
2018-09-13T16:32:21.344Z,100059.00
2018-09-13T16:34:51.174Z,100059.00
2018-09-13T16:37:25.623Z,100053.00
2018-09-13T16:40:00.798Z,100066.00
2018-09-13T16:42:41.894Z,100070.00
2018-09-13T16:45:12.042Z,100062.00
2018-09-13T16:47:46.433Z,100064.00
2018-09-13T16:50:15.629Z,100067.00
2018-09-13T16:52:44.818Z,100061.00
2018-09-13T16:55:14.062Z,100055.00
2018-09-13T16:57:43.190Z,100055.00
2018-09-13T17:00:12.384Z,100058.00
2018-09-13T17:02:41.523Z,100058.00
2018-09-13T17:05:10.561Z,100058.00
2018-09-13T17:07:39.527Z,100060.00
2018-09-13T17:10:08.732Z,100055.00
2018-09-13T17:12:37.859Z,100060.00
2018-09-13T17:15:07.126Z,100064.00
2018-09-13T17:17:36.299Z,100057.00
2018-09-13T17:20:05.509Z,100064.00
2018-09-13T17:22:34.690Z,100069.00
2018-09-13T17:25:03.896Z,100068.00
2018-09-13T17:27:33.046Z,100065.00
2018-09-13T17:30:02.294Z,100076.00
2018-09-13T17:32:31.460Z,100078.00
2018-09-13T17:35:00.374Z,100079.00
2018-09-13T17:37:29.492Z,100084.00
2018-09-13T17:39:58.586Z,100081.00
2018-09-13T17:42:27.519Z,100069.00
2018-09-13T17:44:56.641Z,100069.00
2018-09-13T17:47:25.569Z,100075.00
2018-09-13T17:49:54.695Z,100070.00
2018-09-13T17:52:23.797Z,100073.00
2018-09-13T17:54:52.694Z,100079.00
2018-09-13T17:57:21.888Z,100075.00
2018-09-13T17:59:51.081Z,100082.00
2018-09-13T18:02:20.231Z,100078.00
2018-09-13T18:04:49.398Z,100075.00
2018-09-13T18:07:18.506Z,100069.00
2018-09-13T18:09:47.692Z,100062.00
2018-09-13T18:12:16.856Z,100078.00
2018-09-13T18:14:45.983Z,100080.00
2018-09-13T18:17:15.074Z,100090.00
2018-09-13T18:19:44.195Z,100086.00
2018-09-13T18:22:13.305Z,100083.00
2018-09-13T18:24:42.158Z,100086.00
2018-09-13T18:27:11.073Z,100089.00
2018-09-13T18:29:40.252Z,100089.00
2018-09-13T18:32:09.443Z,100095.00
2018-09-13T18:34:38.313Z,100096.00
2018-09-13T18:37:07.414Z,100094.00
2018-09-13T18:39:36.551Z,100101.00
2018-09-13T18:42:05.445Z,100095.00
2018-09-13T18:44:34.712Z,100098.00
2018-09-13T18:47:03.834Z,100097.00
2018-09-13T18:49:32.955Z,100096.00
2018-09-13T18:52:02.126Z,100105.00
2018-09-13T18:54:31.142Z,100107.00
2018-09-13T18:57:00.336Z,100108.00
2018-09-13T18:59:29.251Z,100111.00
2018-09-13T19:01:58.504Z,100112.00
2018-09-13T19:04:27.692Z,100106.00
2018-09-13T19:06:56.601Z,100121.00
2018-09-13T19:09:25.743Z,100102.00
2018-09-13T19:11:54.632Z,100112.00
2018-09-13T19:14:23.782Z,100114.00
2018-09-13T19:16:52.682Z,100110.00
2018-09-13T19:19:21.806Z,100104.00
2018-09-13T19:21:50.971Z,100108.00
2018-09-13T19:24:20.161Z,100115.00
2018-09-13T19:26:49.322Z,100111.00
2018-09-13T19:29:18.477Z,100111.00
2018-09-13T19:31:47.701Z,100108.00
2018-09-13T19:34:16.597Z,100105.00
2018-09-13T19:36:45.698Z,100111.00
2018-09-13T19:39:14.632Z,100112.00
2018-09-13T19:41:44.098Z,100117.00
2018-09-13T19:44:13.053Z,100116.00
2018-09-13T19:46:42.266Z,100123.00
2018-09-13T19:49:11.143Z,100119.00
2018-09-13T19:51:40.448Z,100122.00
2018-09-13T19:54:09.341Z,100121.00
2018-09-13T19:56:38.523Z,100114.00
2018-09-13T19:59:07.498Z,100121.00
2018-09-13T20:01:36.727Z,100119.00
2018-09-13T20:04:05.895Z,100121.00
2018-09-13T20:06:34.896Z,100119.00
2018-09-13T20:09:06.404Z,100116.00
2018-09-13T20:11:35.607Z,100122.00
2018-09-13T20:14:04.626Z,100121.00
2018-09-13T20:16:34.347Z,100117.00
2018-09-13T20:19:03.597Z,100113.00
2018-09-13T20:21:32.745Z,100126.00
2018-09-13T20:24:01.915Z,100124.00
2018-09-13T20:26:31.077Z,100123.00
2018-09-13T20:29:00.091Z,100123.00
2018-09-13T20:31:29.345Z,100128.00
2018-09-13T20:33:58.267Z,100125.00
2018-09-13T20:36:27.451Z,100127.00
2018-09-13T20:38:57.783Z,100128.00
2018-09-13T20:41:26.719Z,100122.00
2018-09-13T20:43:55.871Z,100130.00
2018-09-13T20:46:25.398Z,100137.00
2018-09-13T20:48:54.668Z,100137.00
2018-09-13T20:51:24.130Z,100140.00
2018-09-13T20:53:53.397Z,100138.00
2018-09-13T20:56:22.585Z,100139.00
2018-09-13T20:58:51.772Z,100137.00
2018-09-13T21:01:21.003Z,100141.00
2018-09-13T21:03:50.951Z,100142.00
2018-09-13T21:06:20.321Z,100138.00
2018-09-13T21:08:49.699Z,100143.00
2018-09-13T21:11:18.609Z,100147.00
2018-09-13T21:13:50.863Z,100149.00
2018-09-13T21:16:20.031Z,100147.00
2018-09-13T21:18:49.675Z,100150.00
2018-09-13T21:21:19.172Z,100145.00
2018-09-13T21:23:48.591Z,100145.00
2018-09-13T21:26:18.380Z,100138.00
2018-09-13T21:28:48.184Z,100138.00
2018-09-13T21:31:17.171Z,100147.00
2018-09-13T21:33:46.503Z,100144.00
2018-09-13T21:36:15.683Z,100154.00
2018-09-13T21:38:45.228Z,100145.00
2018-09-13T21:41:15.336Z,100142.00
2018-09-13T21:43:45.114Z,100143.00
2018-09-13T21:46:15.521Z,100147.00
2018-09-13T21:48:44.758Z,100143.00
2018-09-13T21:51:14.858Z,100138.00
2018-09-13T21:53:47.447Z,100136.00
2018-09-13T21:56:17.473Z,100142.00
2018-09-13T21:58:46.817Z,100153.00
2018-09-13T22:01:16.307Z,100151.00
2018-09-13T22:03:46.737Z,100147.00
2018-09-13T22:06:15.910Z,100156.00
2018-09-13T22:08:45.100Z,100148.00
2018-09-13T22:11:14.326Z,100151.00
2018-09-13T22:13:43.226Z,100147.00
2018-09-13T22:16:12.224Z,100139.00
2018-09-13T22:18:41.386Z,100148.00
2018-09-13T22:21:10.922Z,100147.00
2018-09-13T22:23:40.058Z,100145.00
2018-09-13T22:26:09.003Z,100148.00
2018-09-13T22:28:39.112Z,100146.00
2018-09-13T22:31:08.249Z,100147.00
2018-09-13T22:33:40.009Z,100152.00
2018-09-13T22:36:09.054Z,100155.00
2018-09-13T22:38:38.524Z,100160.00
2018-09-13T22:41:08.342Z,100160.00
2018-09-13T22:43:42.694Z,100155.00
2018-09-13T22:46:11.954Z,100155.00
2018-09-13T22:48:41.140Z,100157.00
2018-09-13T22:51:10.397Z,100155.00
2018-09-13T22:53:39.588Z,100150.00
2018-09-13T22:56:08.962Z,100156.00
2018-09-13T22:58:38.883Z,100151.00
2018-09-13T23:01:08.243Z,100164.00
2018-09-13T23:03:37.532Z,100165.00
2018-09-13T23:06:06.477Z,100161.00
2018-09-13T23:08:35.718Z,100160.00
2018-09-13T23:11:05.019Z,100150.00
2018-09-13T23:13:34.380Z,100151.00
2018-09-13T23:16:03.458Z,100149.00
2018-09-13T23:18:33.445Z,100156.00
2018-09-13T23:21:03.016Z,100158.00
2018-09-13T23:23:32.376Z,100152.00
2018-09-13T23:26:01.331Z,100159.00
2018-09-13T23:28:30.327Z,100164.00
2018-09-13T23:31:00.153Z,100154.00
2018-09-13T23:33:29.342Z,100156.00
2018-09-13T23:35:58.615Z,100157.00
2018-09-13T23:38:28.338Z,100159.00
2018-09-13T23:40:57.251Z,100148.00
2018-09-13T23:43:26.450Z,100150.00
2018-09-13T23:45:55.390Z,100150.00
2018-09-13T23:48:24.624Z,100144.00
2018-09-13T23:50:53.839Z,100157.00
2018-09-13T23:53:22.999Z,100158.00
2018-09-13T23:55:52.212Z,100159.00
2018-09-13T23:58:21.436Z,100157.00
